Kingsville, Texas
Current Conditions -  °F | °C
As of 5:56 AM on Monday 20 Oct 2014 (Local Time) from KNQI Reporting Station
Broken Clouds Broken Clouds  
Wind Chill: 71°   Ceiling: 5500
Heat Index: 71°   Visibility: 10mi
Dew Point: 70°   Wind: 7mph
Humidity: 96%   Direction: 10°N
Pressure: 29.93"   Gusts: NA
Location:  27.52°N, 97.85°W
Report Text: KNQI 201056Z AUTO 01006KT 10SM FEW030 SCT046 BKN055 22/21 A2993 RMK AO2 SLP133 T02170211
Loading
Personal Weather Stations






























Interactive Weather Map
Tropical Storm Tracking
New forecast layout! Learn more

10-Day Weather Forecast

Advertisements
Track Severe Weather on mobile